Time;durP1;ratioP1;P1;durP2;ratioP2;P2;SDS_P1;SDS_P2;PMS_P1;PMS_P2;Temp;Humidity;BMP_temperature;BMP_pressure;BME280_temperature;BME280_humidity;BME280_pressure;Samples;Min_cycle;Max_cycle;Signal;HPM_P1;HPM_P2
2022/06/09 00:01:46;;;;;;;2.30;1.00;;;15.50;84.20;;;14.39;95.73;95423.91;5037966;28;20045;-65
2022/06/09 00:04:28;;;;;;;3.03;1.08;;;15.40;84.00;;;14.38;95.58;95428.38;5007993;28;20042;-65
2022/06/09 00:07:17;;;;;;;1.42;0.80;;;15.40;84.30;;;14.40;96.06;95431.63;5008748;28;20084;-65
2022/06/09 00:09:47;;;;;;;1.52;0.80;;;15.50;84.30;;;14.43;95.38;95424.25;4997468;28;20105;-64
2022/06/09 00:12:13;;;;;;;2.17;1.05;;;15.60;84.30;;;14.45;95.04;95428.31;5030967;28;20360;-65
2022/06/09 00:14:39;;;;;;;1.60;0.93;;;15.60;84.10;;;14.44;94.94;95421.41;4972970;28;20022;-65
2022/06/09 00:17:05;;;;;;;2.30;1.00;;;15.60;84.30;;;14.44;94.37;95421.41;4996247;28;20034;-65
2022/06/09 00:19:31;;;;;;;2.45;0.93;;;15.50;84.20;;;14.44;95.50;95421.41;4997803;28;20040;-65
2022/06/09 00:21:57;;;;;;;2.83;1.00;;;15.50;84.40;;;14.43;94.14;95419.78;4988421;28;20093;-65
2022/06/09 00:24:23;;;;;;;2.33;1.23;;;15.40;84.10;;;14.38;94.64;95412.50;5024547;28;20096;-67
2022/06/09 00:26:48;;;;;;;3.38;1.02;;;15.40;84.40;;;14.39;94.58;95418.63;4993620;28;20030;-64
2022/06/09 00:29:14;;;;;;;1.88;0.95;;;15.50;84.40;;;14.37;94.88;95420.69;5014336;28;20033;-65
2022/06/09 00:31:40;;;;;;;2.30;1.10;;;15.40;84.10;;;14.40;95.12;95420.22;5008321;28;20041;-65
2022/06/09 00:34:06;;;;;;;2.05;1.20;;;15.40;84.00;;;14.39;94.10;95418.63;4984893;28;20805;-65
2022/06/09 00:36:31;;;;;;;1.23;0.93;;;15.40;84.10;;;14.39;95.35;95415.97;5006109;28;20453;-64
2022/06/09 00:38:58;;;;;;;5.15;0.98;;;15.50;84.30;;;14.36;94.37;95411.13;5013418;28;20552;-65
2022/06/09 00:41:25;;;;;;;1.98;1.05;;;15.40;84.20;;;14.35;95.86;95412.97;4988589;28;20034;-64
2022/06/09 00:43:51;;;;;;;3.03;0.93;;;15.50;84.40;;;14.33;96.28;95422.97;4987162;28;20038;-64
2022/06/09 00:46:27;;;;;;;2.92;0.82;;;15.40;84.70;;;14.36;97.40;95424.38;5004942;28;20107;-66
2022/06/09 00:49:02;;;;;;;1.33;0.90;;;15.50;84.80;;;14.35;95.84;95418.28;4988539;28;20036;-64
2022/06/09 00:51:38;;;;;;;1.60;1.10;;;15.50;84.70;;;14.35;96.34;95422.75;5024534;28;20090;-64
2022/06/09 00:54:14;;;;;;;1.85;1.15;;;15.40;84.40;;;14.36;97.20;95429.66;5013372;28;20045;-65
2022/06/09 00:56:45;;;;;;;2.15;1.10;;;15.50;84.70;;;14.37;96.20;95431.25;5009028;28;20037;-65
2022/06/09 00:59:15;;;;;;;1.83;0.93;;;15.50;84.50;;;14.39;96.54;95429.19;5022452;28;20042;-65
2022/06/09 01:01:41;;;;;;;2.38;1.17;;;15.50;84.70;;;14.40;97.31;95436.09;5002587;28;20034;-64
2022/06/09 01:04:09;;;;;;;2.65;1.10;;;15.50;84.80;;;14.40;96.76;95423.69;5025793;28;20045;-65
2022/06/09 01:06:48;;;;;;;2.05;0.90;;;15.50;84.80;;;14.47;97.76;95425.44;5012587;28;20042;-65
2022/06/09 01:09:17;;;;;;;3.35;1.17;;;15.60;84.60;;;14.50;97.30;95431.09;4990377;28;20120;-64
2022/06/09 01:11:45;;;;;;;2.05;1.05;;;15.60;84.40;;;14.53;97.78;95435.91;4986763;28;20048;-64
2022/06/09 01:14:13;;;;;;;2.13;1.10;;;15.70;84.50;;;14.55;96.96;95436.50;5000383;28;20084;-64
2022/06/09 01:17:18;;;;;;;2.67;1.38;;;15.70;84.60;;;14.58;97.31;95432.59;4988545;28;20076;-66
2022/06/09 01:20:07;;;;;;;3.55;1.20;;;15.70;84.40;;;14.57;97.95;95426.47;4975914;28;20037;-64
2022/06/09 01:23:13;;;;;;;3.35;1.25;;;15.80;84.50;;;14.58;97.59;95433.38;5004002;28;20032;-65
2022/06/09 01:25:54;;;;;;;2.72;1.10;;;15.70;84.30;;;14.61;97.52;95438.22;5005206;28;20045;-64
2022/06/09 01:29:02;;;;;;;2.47;1.20;;;15.70;84.10;;;14.63;98.03;95435.34;5017090;28;20051;-65
2022/06/09 01:32:00;;;;;;;3.47;1.40;;;15.80;84.40;;;14.61;97.08;95448.00;4993961;28;20040;-63
2022/06/09 01:34:29;;;;;;;4.30;1.50;;;15.70;84.30;;;14.60;96.07;95441.09;4998325;28;20146;-64
2022/06/09 01:37:17;;;;;;;3.60;1.85;;;15.70;84.40;;;14.62;96.79;95442.47;4996632;28;20041;-66
2022/06/09 01:39:51;;;;;;;2.22;1.10;;;15.70;84.40;;;14.65;98.47;95439.38;4984913;28;20417;-64
2022/06/09 01:42:25;;;;;;;3.55;1.70;;;15.80;84.40;;;14.66;97.04;95443.63;5007773;28;20038;-64
2022/06/09 01:44:55;;;;;;;2.50;1.52;;;15.80;84.20;;;14.68;96.91;95444.19;5025137;28;20312;-64
2022/06/09 01:47:22;;;;;;;2.78;1.60;;;15.90;84.40;;;14.70;96.93;95434.16;4978145;28;20033;-64
2022/06/09 01:49:49;;;;;;;4.00;1.67;;;16.00;84.20;;;14.72;97.10;95444.56;5003203;28;20473;-64
2022/06/09 01:52:15;;;;;;;3.83;1.55;;;15.90;84.00;;;14.73;96.81;95445.38;4988502;28;20070;-64
2022/06/09 01:54:41;;;;;;;4.03;1.30;;;15.90;83.70;;;14.74;96.29;95441.69;4977052;28;20056;-64
2022/06/09 01:57:10;;;;;;;3.97;1.63;;;15.90;83.40;;;14.73;95.83;95440.88;4993048;28;21779;-65
2022/06/09 01:59:39;;;;;;;4.15;1.60;;;15.80;83.60;;;14.73;95.45;95445.38;4987788;28;20087;-66
2022/06/09 02:02:12;;;;;;;2.35;1.58;;;15.90;83.80;;;14.73;95.64;95446.16;5007747;28;20029;-66
2022/06/09 02:04:45;;;;;;;2.38;1.10;;;15.80;83.30;;;14.70;94.83;95447.41;5030838;28;20038;-65
2022/06/09 02:07:12;;;;;;;2.40;1.25;;;15.80;83.00;;;14.67;94.58;95439.13;5010383;28;20226;-65
2022/06/09 02:09:38;;;;;;;4.10;1.35;;;15.80;82.60;;;14.68;95.03;95443.38;5004198;28;20065;-64
2022/06/09 02:12:09;;;;;;;1.15;1.00;;;15.70;82.50;;;14.66;92.71;95440.97;4985198;28;20469;-64
2022/06/09 02:14:35;;;;;;;4.35;1.20;;;15.70;82.20;;;14.64;92.37;95450.19;4972138;28;20062;-65
2022/06/09 02:17:03;;;;;;;0.70;0.70;;;15.70;81.10;;;14.61;90.89;95443.50;4997279;28;20034;-64
2022/06/09 02:19:29;;;;;;;2.72;0.90;;;15.60;80.60;;;14.59;91.27;95442.94;5027698;28;20112;-65
2022/06/09 02:21:54;;;;;;;1.45;0.80;;;15.60;80.50;;;14.55;90.28;95441.78;5021263;28;20046;-64
2022/06/09 02:24:20;;;;;;;1.92;1.15;;;15.60;80.40;;;14.53;90.83;95441.22;5028049;28;20029;-64
2022/06/09 02:26:46;;;;;;;7.40;5.75;;;15.50;80.30;;;14.50;91.09;95446.97;5028267;28;20067;-65
2022/06/09 02:29:14;;;;;;;2.20;1.10;;;15.60;80.40;;;14.45;89.16;95444.19;5012629;28;20042;-65
2022/06/09 02:31:40;;;;;;;3.55;1.85;;;15.40;80.20;;;14.44;89.14;95447.06;5026590;28;20030;-64
2022/06/09 02:34:05;;;;;;;5.28;3.53;;;15.50;80.70;;;14.40;90.42;95451.97;5016876;28;20093;-64
2022/06/09 02:36:31;;;;;;;7.05;5.82;;;15.40;80.80;;;14.38;91.03;95454.03;4994024;28;20034;-66
2022/06/09 02:38:57;;;;;;;2.47;1.42;;;15.30;80.80;;;14.34;90.64;95451.06;5006242;28;20042;-65
2022/06/09 02:41:23;;;;;;;2.70;1.30;;;15.30;80.60;;;14.34;90.78;95453.69;5024568;28;20048;-64
2022/06/09 02:43:48;;;;;;;5.97;3.28;;;15.40;80.90;;;14.32;89.44;95454.97;4975763;28;20056;-65
2022/06/09 02:46:14;;;;;;;11.38;9.00;;;15.40;80.80;;;14.33;90.37;95453.94;5017363;28;20053;-65
2022/06/09 02:48:41;;;;;;;4.97;1.77;;;15.50;80.90;;;14.31;89.45;95448.06;4988848;28;20038;-65
2022/06/09 02:51:30;;;;;;;6.10;2.00;;;15.40;80.70;;;14.31;90.96;95453.34;4962787;28;20152;-64
2022/06/09 02:54:03;;;;;;;5.85;3.22;;;15.40;80.90;;;14.28;90.60;95453.81;4992581;28;20092;-65
2022/06/09 02:56:29;;;;;;;4.75;3.50;;;15.50;81.20;;;14.28;91.47;95448.53;4964861;28;20062;-65
2022/06/09 02:58:56;;;;;;;3.65;2.30;;;15.50;81.20;;;14.30;90.77;95451.75;4973718;28;20065;-65
2022/06/09 03:01:25;;;;;;;5.05;3.78;;;15.40;80.90;;;14.27;91.37;95453.00;5003744;28;20033;-66
2022/06/09 03:03:51;;;;;;;6.07;3.80;;;15.40;81.40;;;14.23;90.30;95451.81;4986824;28;20531;-64
2022/06/09 03:06:17;;;;;;;5.50;2.47;;;15.30;81.20;;;14.22;90.08;95460.00;4999578;28;20037;-66
2022/06/09 03:08:43;;;;;;;4.80;1.45;;;15.30;81.20;;;14.21;91.28;95458.38;5002401;28;20038;-66
2022/06/09 03:11:12;;;;;;;1.95;0.80;;;15.30;81.30;;;14.22;91.80;95467.91;5021229;28;20050;-65
2022/06/09 03:13:39;;;;;;;3.25;1.10;;;15.30;81.40;;;14.20;90.53;95464.69;5006573;28;20446;-67
2022/06/09 03:16:06;;;;;;;2.53;1.38;;;15.30;81.30;;;14.22;90.47;95470.56;5000946;28;20083;-65
2022/06/09 03:18:32;;;;;;;3.35;2.40;;;15.40;81.50;;;14.23;92.17;95461.59;5015852;28;20034;-65
2022/06/09 03:20:57;;;;;;;7.25;5.28;;;15.40;81.20;;;14.22;90.74;95471.38;5005034;28;20049;-65
2022/06/09 03:23:23;;;;;;;10.18;7.95;;;15.40;81.30;;;14.24;92.10;95473.78;4985157;28;20034;-65
2022/06/09 03:25:49;;;;;;;6.57;3.97;;;15.50;81.30;;;14.26;91.89;95477.03;5009079;28;20040;-65
2022/06/09 03:28:15;;;;;;;6.10;4.65;;;15.50;81.40;;;14.27;91.02;95476.00;5004782;28;20041;-66
2022/06/09 03:30:40;;;;;;;1.23;1.08;;;15.60;81.30;;;14.29;92.68;95481.88;5010241;28;20128;-65
2022/06/09 03:33:06;;;;;;;3.53;1.42;;;15.60;81.10;;;14.31;91.00;95485.09;5024780;28;20037;-65
2022/06/09 03:35:33;;;;;;;1.98;1.20;;;15.60;81.00;;;14.30;90.74;95480.84;4993796;28;20147;-65
2022/06/09 03:37:59;;;;;;;2.38;1.00;;;15.60;81.00;;;14.28;92.18;95485.56;5015112;28;20044;-65
2022/06/09 03:40:25;;;;;;;3.30;0.90;;;15.50;81.10;;;14.29;92.98;95487.16;4983510;28;20038;-66
2022/06/09 03:42:51;;;;;;;1.15;0.90;;;15.60;81.40;;;14.30;93.30;95489.59;4976960;28;20034;-65
2022/06/09 03:45:17;;;;;;;4.18;1.20;;;15.60;81.50;;;14.30;91.81;95488.78;4990797;28;20045;-67
2022/06/09 03:47:42;;;;;;;1.52;0.90;;;15.60;81.30;;;14.30;92.16;95484.28;4971340;28;20073;-65
2022/06/09 03:50:15;;;;;;;4.15;1.40;;;15.60;80.90;;;14.31;92.07;95485.91;4993152;28;20057;-66
2022/06/09 03:52:40;;;;;;;1.80;0.85;;;15.60;81.10;;;14.33;91.58;95496.25;5003733;28;20306;-66
2022/06/09 03:55:06;;;;;;;1.80;1.08;;;15.70;80.80;;;14.34;91.54;95496.03;5019421;28;20034;-65
2022/06/09 03:57:32;;;;;;;3.25;0.90;;;15.70;80.50;;;14.36;91.19;95501.09;5002348;28;20094;-65
2022/06/09 03:59:58;;;;;;;1.13;0.90;;;15.70;80.60;;;14.38;91.98;95494.53;5002763;28;20076;-66
2022/06/09 04:02:24;;;;;;;1.42;0.90;;;15.70;80.30;;;14.40;91.67;95499.59;4978279;28;20034;-66
2022/06/09 04:04:50;;;;;;;1.88;1.02;;;15.70;80.30;;;14.42;92.15;95497.53;4989608;28;20135;-68
2022/06/09 04:07:16;;;;;;;2.60;1.00;;;15.80;80.30;;;14.46;92.50;95493.41;5005240;28;20052;-69
2022/06/09 04:09:41;;;;;;;2.38;0.93;;;15.80;79.90;;;14.47;91.45;95494.22;4993632;28;20029;-66
2022/06/09 04:12:07;;;;;;;2.28;1.10;;;15.90;80.20;;;14.51;91.74;95495.41;5008771;28;20049;-66
2022/06/09 04:14:33;;;;;;;1.73;0.95;;;15.80;80.10;;;14.49;91.58;95500.13;5017891;28;20034;-66
2022/06/09 04:16:59;;;;;;;2.42;0.98;;;15.90;79.90;;;14.50;90.42;95497.25;5020967;28;20037;-66
2022/06/09 04:19:24;;;;;;;1.13;0.70;;;15.90;80.00;;;14.56;91.34;95498.16;4990680;28;20525;-66
2022/06/09 04:21:50;;;;;;;1.10;0.80;;;16.00;80.00;;;14.56;91.27;95504.25;5002718;28;20497;-66
2022/06/09 04:24:16;;;;;;;2.03;1.20;;;15.90;80.10;;;14.59;90.80;95509.09;5013300;28;20159;-66
2022/06/09 04:26:42;;;;;;;2.53;0.70;;;16.00;79.40;;;14.60;90.08;95510.72;5003427;28;20075;-66
2022/06/09 04:29:11;;;;;;;2.67;2.00;;;16.10;79.60;;;14.63;90.36;95512.91;4990943;28;20039;-66
2022/06/09 04:31:37;;;;;;;7.80;4.53;;;16.10;79.40;;;14.64;90.61;95522.44;4990970;28;20076;-67
2022/06/09 04:34:02;;;;;;;10.10;7.55;;;16.10;79.60;;;14.66;90.03;95525.69;5028539;28;20515;-66
2022/06/09 04:36:28;;;;;;;7.50;4.78;;;16.10;79.50;;;14.68;89.83;95528.91;5043127;28;20396;-66
2022/06/09 04:38:54;;;;;;;4.55;1.90;;;16.10;79.60;;;14.74;91.49;95521.09;4981302;28;20073;-66
2022/06/09 04:41:20;;;;;;;2.00;1.02;;;16.10;79.50;;;14.77;90.70;95528.59;5015656;28;20411;-66
2022/06/09 04:43:46;;;;;;;2.45;0.98;;;16.10;79.40;;;14.76;90.12;95519.84;5009070;28;20471;-66
2022/06/09 04:46:16;;;;;;;1.40;0.90;;;16.10;79.50;;;14.81;90.84;95527.09;5003676;28;20037;-66
2022/06/09 04:48:42;;;;;;;6.23;1.20;;;16.20;79.80;;;14.83;90.26;95532.94;5014040;28;20045;-67
2022/06/09 04:51:09;;;;;;;2.47;0.98;;;16.20;79.70;;;14.84;91.35;95532.72;5017106;28;20476;-67
2022/06/09 04:53:37;;;;;;;3.53;1.10;;;16.30;79.50;;;14.86;90.40;95540.44;5018935;28;20144;-66
2022/06/09 04:56:02;;;;;;;2.35;0.93;;;16.30;79.20;;;14.88;90.61;95539.16;5018372;28;20059;-66
2022/06/09 04:58:28;;;;;;;1.83;0.80;;;16.20;79.20;;;14.86;89.84;95541.25;5014066;28;20087;-67
2022/06/09 05:00:54;;;;;;;1.65;0.90;;;16.10;78.80;;;14.87;89.56;95544.69;5030582;28;20115;-65
2022/06/09 05:03:20;;;;;;;1.48;0.77;;;16.10;78.70;;;14.85;89.70;95546.78;5013247;28;20401;-64
2022/06/09 05:05:48;;;;;;;2.90;1.00;;;16.20;78.80;;;14.86;89.35;95553.69;5006815;28;20042;-64
2022/06/09 05:08:14;;;;;;;1.52;0.90;;;16.20;79.10;;;14.86;89.59;95551.84;5005070;28;20500;-66
2022/06/09 05:10:41;;;;;;;2.28;1.13;;;16.20;79.10;;;14.88;89.89;95554.25;4979849;28;20034;-65
2022/06/09 05:13:07;;;;;;;1.60;0.75;;;16.10;79.50;;;14.87;90.42;95555.28;4994243;28;20523;-67
2022/06/09 05:15:38;;;;;;;2.08;0.88;;;16.20;79.10;;;14.88;90.71;95562.19;4994841;28;20132;-64
2022/06/09 05:18:04;;;;;;;2.03;0.80;;;16.30;79.60;;;14.90;90.83;95558.28;4962064;28;20084;-67
2022/06/09 05:20:30;;;;;;;1.73;0.80;;;16.30;79.10;;;14.89;90.26;95558.50;4988960;28;20042;-66
2022/06/09 05:22:56;;;;;;;1.95;1.00;;;16.30;79.30;;;14.92;90.99;95566.78;5040209;28;20865;-68
2022/06/09 05:25:21;;;;;;;1.27;0.82;;;16.40;79.20;;;14.94;90.09;95566.59;5039250;28;20045;-68
2022/06/09 05:27:47;;;;;;;6.68;2.17;;;16.30;79.30;;;14.96;89.69;95564.53;5011365;28;20049;-64
2022/06/09 05:30:16;;;;;;;11.27;8.88;;;16.30;79.10;;;14.99;89.78;95562.22;5004138;28;20037;-63
2022/06/09 05:32:42;;;;;;;11.43;10.13;;;16.40;78.50;;;15.04;89.27;95571.31;5010643;28;20033;-67
2022/06/09 05:35:09;;;;;;;3.58;1.75;;;16.40;78.50;;;15.05;88.81;95571.09;5022896;28;20096;-66
2022/06/09 05:45:49;;;;;;;2.53;1.20;;;16.50;78.10;;;15.06;87.95;95575.34;5010094;28;20068;-63
2022/06/09 05:48:15;;;;;;;1.77;1.17;;;16.40;78.10;;;15.06;88.45;95582.47;4991105;28;20125;-64
2022/06/09 05:50:41;;;;;;;3.03;1.30;;;16.40;78.40;;;15.08;89.11;95580.41;5031030;28;20040;-66
2022/06/09 05:53:06;;;;;;;2.05;1.20;;;16.50;78.20;;;15.09;89.17;95580.19;5008840;28;20042;-65
2022/06/09 05:55:32;;;;;;;3.65;1.25;;;16.50;77.80;;;15.11;89.19;95586.03;4981542;28;20026;-64
2022/06/09 05:57:58;;;;;;;2.25;1.20;;;16.40;78.10;;;15.15;88.28;95587.19;5008646;28;20520;-63
2022/06/09 06:00:25;;;;;;;2.60;1.27;;;16.50;78.00;;;15.21;88.82;95586.31;5018519;28;20106;-67
2022/06/09 06:02:51;;;;;;;2.70;1.20;;;16.60;78.00;;;15.28;87.86;95594.13;4998214;28;20551;-64
2022/06/09 06:08:01;;;;;;;2.13;1.20;;;16.90;77.30;;;15.38;88.18;95590.88;5006381;28;20127;-63
2022/06/09 06:10:26;;;;;;;1.65;0.90;;;16.90;77.30;;;15.43;88.37;95594.47;4984801;28;20447;-64
2022/06/09 06:12:52;;;;;;;1.05;0.80;;;16.90;77.30;;;15.47;87.05;95602.78;5038314;28;20029;-64
2022/06/09 06:15:18;;;;;;;3.72;1.00;;;16.90;76.10;;;15.46;86.83;95606.47;5009071;28;20033;-65
2022/06/09 06:17:43;;;;;;;2.78;0.90;;;16.80;76.40;;;15.46;87.20;95606.47;5006952;28;20609;-64
2022/06/09 06:20:10;;;;;;;1.40;0.70;;;16.80;76.60;;;15.51;87.13;95611.88;5019166;28;20801;-64
2022/06/09 06:22:35;;;;;;;1.17;0.70;;;17.00;76.40;;;15.53;87.21;95609.78;5002680;28;20459;-64
2022/06/09 06:25:04;;;;;;;2.10;0.90;;;17.00;76.10;;;15.59;87.09;95614.19;5030783;28;20090;-63
2022/06/09 06:27:30;;;;;;;2.70;0.80;;;17.10;76.90;;;15.61;86.94;95617.41;5028498;28;20065;-65
2022/06/09 06:29:56;;;;;;;1.98;0.80;;;17.00;76.10;;;15.62;85.78;95619.06;5026373;28;20067;-67
2022/06/09 06:32:22;;;;;;;1.73;1.00;;;17.00;76.20;;;15.65;85.67;95617.78;5012372;28;20120;-66
2022/06/09 06:34:47;;;;;;;2.33;0.70;;;17.10;76.10;;;15.65;86.25;95618.59;5015759;28;20092;-66
2022/06/09 06:37:13;;;;;;;1.10;0.60;;;17.10;75.80;;;15.68;85.69;95628.72;5019553;28;20084;-65
2022/06/09 06:39:39;;;;;;;1.33;0.70;;;17.10;75.30;;;15.71;85.47;95632.75;5043038;28;20025;-65
2022/06/09 06:42:05;;;;;;;1.23;0.60;;;17.20;74.70;;;15.75;85.31;95637.34;5019988;28;20094;-63
2022/06/09 06:44:30;;;;;;;1.83;0.80;;;17.10;74.90;;;15.76;84.87;95628.34;5009286;28;20049;-65
2022/06/09 06:46:56;;;;;;;1.45;0.70;;;17.40;74.70;;;15.83;84.86;95626.38;5015782;28;20057;-66
2022/06/09 06:49:22;;;;;;;1.77;0.82;;;17.40;74.90;;;15.88;84.84;95638.97;5009628;28;20037;-67
2022/06/09 06:51:49;;;;;;;1.92;0.80;;;17.40;74.40;;;15.91;84.76;95639.28;5019996;28;20034;-66
2022/06/09 06:54:14;;;;;;;3.30;0.80;;;17.40;74.20;;;15.95;84.67;95644.13;5008850;28;20116;-66
2022/06/09 06:56:40;;;;;;;1.02;0.70;;;17.50;74.60;;;15.98;84.33;95638.34;5012562;28;20048;-68
2022/06/09 06:59:08;;;;;;;1.30;0.68;;;17.50;74.30;;;16.02;84.05;95634.19;5012202;28;20136;-65
2022/06/09 07:01:34;;;;;;;2.58;0.90;;;17.50;73.90;;;16.00;83.29;95638.94;5025652;28;20048;-67
2022/06/09 07:04:00;;;;;;;1.65;0.80;;;17.60;74.30;;;16.06;83.75;95640.63;4998457;28;20568;-67
2022/06/09 07:06:26;;;;;;;2.78;0.68;;;17.60;74.10;;;16.09;83.35;95645.50;4997670;28;20047;-65
2022/06/09 07:08:52;;;;;;;1.80;0.82;;;17.60;73.40;;;16.13;83.61;95641.34;5020110;28;20091;-68
2022/06/09 07:11:17;;;;;;;1.77;0.90;;;17.70;73.60;;;16.17;83.43;95653.09;5029146;28;20132;-68
2022/06/09 07:13:43;;;;;;;1.38;0.88;;;17.70;73.90;;;16.22;83.38;95651.34;5016316;28;20117;-67
2022/06/09 07:16:09;;;;;;;1.38;0.70;;;17.90;73.70;;;16.27;83.33;95647.97;5017970;28;20129;-66
2022/06/09 07:18:37;;;;;;;1.58;0.88;;;17.90;73.30;;;16.29;82.33;95647.72;5008748;28;20489;-67
2022/06/09 07:21:03;;;;;;;1.75;0.77;;;17.70;72.90;;;16.30;82.69;95647.53;5008816;28;20041;-65
2022/06/09 07:23:29;;;;;;;1.08;0.60;;;17.80;73.00;;;16.32;82.35;95641.97;4983222;28;20173;-65
2022/06/09 07:25:55;;;;;;;1.63;0.60;;;17.80;72.30;;;16.39;81.66;95647.94;4974965;28;20037;-65
2022/06/09 07:28:21;;;;;;;1.25;0.70;;;17.90;72.20;;;16.43;80.87;95654.38;4984402;28;20548;-66
2022/06/09 07:30:47;;;;;;;1.48;0.57;;;17.90;71.80;;;16.44;81.43;95651.50;4983358;28;20053;-66
2022/06/09 07:33:13;;;;;;;1.02;0.60;;;18.00;72.20;;;16.52;81.42;95653.78;5000984;28;20554;-67
2022/06/09 07:35:38;;;;;;;0.90;0.70;;;18.10;71.10;;;16.62;81.12;95652.34;4990403;28;20081;-70
2022/06/09 07:38:07;;;;;;;1.40;0.90;;;18.50;71.40;;;16.76;81.62;95656.38;4985682;28;20030;-66
2022/06/09 07:40:34;;;;;;;2.13;1.00;;;18.80;70.70;;;16.92;82.03;95655.59;4956212;28;20037;-65
2022/06/09 07:42:59;;;;;;;1.75;1.02;;;19.00;70.40;;;17.06;80.52;95654.25;4974938;28;20056;-66
2022/06/09 07:45:25;;;;;;;1.40;0.80;;;19.10;68.90;;;17.16;80.00;95656.25;4990077;28;20458;-65
2022/06/09 07:47:51;;;;;;;1.30;0.90;;;19.10;69.40;;;17.20;80.14;95645.94;5004135;28;20498;-64
2022/06/09 07:50:17;;;;;;;2.03;0.70;;;19.10;68.70;;;17.26;79.00;95661.75;5007102;28;20084;-65
2022/06/09 07:52:43;;;;;;;1.33;0.60;;;19.00;69.20;;;17.26;79.09;95663.59;5014988;28;20081;-64
2022/06/09 07:55:09;;;;;;;1.75;0.85;;;18.90;70.00;;;17.17;79.50;95678.31;4985463;28;20069;-64
2022/06/09 07:57:35;;;;;;;4.50;1.15;;;18.40;71.30;;;17.01;79.70;95674.63;4991618;28;20033;-64
2022/06/09 08:00:03;;;;;;;1.23;0.80;;;18.10;72.60;;;16.87;80.08;95684.72;5008068;28;20037;-65
2022/06/09 08:02:29;;;;;;;2.35;1.50;;;18.00;72.80;;;16.74;80.62;95691.13;4991663;28;20030;-65
2022/06/09 08:04:55;;;;;;;2.70;1.20;;;17.90;73.60;;;16.67;80.93;95689.66;5024113;28;20392;-65
2022/06/09 08:07:21;;;;;;;2.45;1.25;;;18.00;73.90;;;16.62;81.36;95690.34;5012299;28;20065;-65
2022/06/09 08:09:47;;;;;;;3.22;1.35;;;17.90;74.10;;;16.52;81.35;95688.31;4988061;28;20030;-63
2022/06/09 08:12:13;;;;;;;3.97;1.40;;;17.70;74.30;;;16.47;82.03;95692.69;5000241;28;20065;-63
2022/06/09 08:14:39;;;;;;;2.95;1.40;;;17.70;74.50;;;16.38;82.39;95697.56;5008108;28;20110;-65
2022/06/09 08:17:05;;;;;;;3.28;1.42;;;17.60;75.00;;;16.26;81.76;95703.94;5011929;28;20062;-62
2022/06/09 08:19:31;;;;;;;3.60;1.35;;;17.30;75.00;;;16.14;82.80;95712.75;4990570;28;20038;-66
2022/06/09 08:21:57;;;;;;;4.15;1.40;;;17.30;75.50;;;16.04;82.35;95706.38;5011639;28;20038;-66
2022/06/09 08:24:22;;;;;;;2.72;1.50;;;17.10;76.10;;;15.95;83.59;95707.78;5006529;28;20124;-64
2022/06/09 08:26:49;;;;;;;1.90;1.50;;;17.20;76.40;;;15.91;83.30;95713.56;4990556;28;20037;-63
2022/06/09 08:29:15;;;;;;;2.65;1.50;;;17.10;76.00;;;15.82;84.60;95714.94;5021937;28;20501;-66
2022/06/09 08:31:41;;;;;;;3.13;1.73;;;17.00;77.30;;;15.78;84.65;95719.09;5027587;28;20029;-66
2022/06/09 08:34:07;;;;;;;2.42;1.50;;;17.10;77.40;;;15.82;86.11;95728.19;5009349;28;20036;-64
2022/06/09 08:36:33;;;;;;;3.25;1.80;;;17.30;77.40;;;15.83;85.70;95721.84;5010834;28;20034;-64
2022/06/09 08:38:59;;;;;;;3.58;1.92;;;17.30;76.90;;;15.85;85.95;95722.44;5016362;28;20087;-63
2022/06/09 08:41:48;;;;;;;3.30;1.77;;;17.30;77.00;;;15.89;86.45;95730.75;4996252;28;20386;-63
2022/06/09 08:44:41;;;;;;;2.65;1.35;;;17.40;77.00;;;15.95;87.59;95726.34;4986130;28;20092;-64
2022/06/09 08:47:27;;;;;;;3.67;1.80;;;17.60;76.80;;;15.97;86.54;95727.75;4991779;28;20039;-62
2022/06/09 08:50:17;;;;;;;5.45;1.98;;;17.40;76.00;;;16.01;87.66;95728.09;4989424;28;20035;-64
2022/06/09 08:53:25;;;;;;;7.03;1.85;;;17.50;76.90;;;16.09;87.76;95741.00;5018072;28;20045;-64
2022/06/09 08:56:13;;;;;;;2.72;1.60;;;17.60;76.70;;;16.16;87.49;95739.03;4997421;28;20113;-62
2022/06/09 08:58:43;;;;;;;3.45;1.65;;;17.80;77.00;;;16.27;87.58;95738.19;5007227;28;20021;-64
2022/06/09 09:01:12;;;;;;;4.65;1.80;;;18.10;76.30;;;16.38;86.70;95740.03;4980374;28;20049;-62
2022/06/09 09:03:46;;;;;;;4.43;1.98;;;18.10;74.90;;;16.45;86.47;95739.91;5030029;28;20030;-64
2022/06/09 09:06:34;;;;;;;4.15;1.70;;;18.10;74.90;;;16.59;85.87;95743.13;4993366;28;20990;-63
2022/06/09 09:09:27;;;;;;;3.88;1.80;;;18.50;74.10;;;16.72;85.02;95746.31;5009149;28;20057;-64
2022/06/09 09:12:16;;;;;;;4.32;1.90;;;18.60;73.60;;;16.88;84.46;95738.66;4989959;28;20441;-63
2022/06/09 09:15:10;;;;;;;3.42;1.73;;;18.80;72.70;;;17.04;83.48;95744.03;4989705;28;20143;-63
2022/06/09 09:18:14;;;;;;;4.82;1.95;;;19.00;71.40;;;17.18;81.98;95744.53;5003400;28;20375;-63
2022/06/09 09:21:12;;;;;;;6.32;1.83;;;19.00;70.60;;;17.25;79.65;95749.72;4981295;28;20193;-64
2022/06/09 09:24:04;;;;;;;3.97;1.60;;;18.80;69.70;;;17.29;79.75;95750.84;5014186;28;20049;-62
2022/06/09 09:26:48;;;;;;;3.33;1.60;;;19.00;69.90;;;17.37;81.98;95748.59;5011025;28;20034;-63
2022/06/09 09:29:34;;;;;;;4.55;1.67;;;19.20;70.90;;;17.44;79.77;95753.78;5001718;28;20120;-63
2022/06/09 09:32:04;;;;;;;3.55;1.48;;;19.20;70.30;;;17.55;80.00;95754.75;4964067;28;20351;-63
2022/06/09 09:34:34;;;;;;;3.90;1.37;;;19.50;68.50;;;17.64;78.50;95753.28;4991427;28;20094;-64
2022/06/09 09:37:29;;;;;;;2.97;1.10;;;19.50;67.20;;;17.79;77.84;95760.75;4990592;28;20133;-64
2022/06/09 09:40:15;;;;;;;5.53;1.83;;;19.70;67.10;;;17.93;76.40;95764.69;4984151;28;20046;-63
2022/06/09 09:42:44;;;;;;;4.13;1.42;;;19.90;65.90;;;18.06;77.54;95767.81;4972801;28;20046;-66
2022/06/09 09:45:10;;;;;;;3.97;1.40;;;20.10;66.20;;;18.21;77.94;95772.56;5027080;28;20030;-66
2022/06/09 09:47:49;;;;;;;2.95;1.20;;;20.30;66.90;;;18.34;74.93;95769.56;5028751;28;20076;-64
2022/06/09 09:50:28;;;;;;;6.97;1.45;;;20.40;65.60;;;18.45;75.76;95764.38;5028383;28;20095;-64
2022/06/09 09:53:20;;;;;;;4.18;1.35;;;20.40;65.00;;;18.50;74.70;95767.09;4997779;28;20048;-64
2022/06/09 09:55:56;;;;;;;4.60;1.00;;;20.40;65.20;;;18.62;73.80;95775.78;5008447;28;20032;-64
2022/06/09 09:58:39;;;;;;;2.75;1.17;;;20.60;63.40;;;18.69;72.65;95771.09;4993659;28;20037;-65
2022/06/09 10:08:35;;;;;;;3.63;1.00;;;20.60;62.70;;;18.87;72.24;95773.44;5004406;28;20025;-66
2022/06/09 10:09:59;;;;;;;3.92;1.30;;;21.00;59.90;;;19.15;71.40;95771.63;5022686;28;20067;-63
2022/06/09 10:12:33;;;;;;;2.00;0.90;;;21.30;60.30;;;19.29;70.70;95778.19;4996142;28;20033;-63
2022/06/09 10:15:08;;;;;;;3.38;1.27;;;21.60;60.60;;;19.41;69.49;95784.16;4981887;28;20042;-64
2022/06/09 10:18:05;;;;;;;2.15;0.88;;;21.60;59.20;;;19.46;67.83;95792.22;5023716;28;20041;-64
2022/06/09 10:20:47;;;;;;;5.03;1.23;;;21.40;59.40;;;19.42;68.65;95787.63;5004526;28;20436;-64
2022/06/09 10:23:26;;;;;;;3.83;1.10;;;21.10;59.90;;;19.37;68.49;95796.38;5015262;28;20068;-65
2022/06/09 10:26:05;;;;;;;2.83;0.95;;;21.00;60.80;;;19.24;69.40;95791.47;5005065;28;20124;-63
2022/06/09 10:28:37;;;;;;;3.15;1.13;;;20.80;61.50;;;19.18;69.20;95800.44;4995844;28;20057;-67
2022/06/09 10:31:56;;;;;;;3.70;1.30;;;20.70;62.10;;;19.17;69.88;95798.84;5011737;28;20033;-67
2022/06/09 10:34:27;;;;;;;2.30;0.90;;;20.90;62.40;;;19.32;70.39;95801.69;4993318;28;20049;-70
2022/06/09 10:37:00;;;;;;;3.15;1.08;;;21.40;61.60;;;19.43;70.14;95789.22;4999156;28;20516;-70
2022/06/09 10:40:12;;;;;;;3.25;1.15;;;21.50;61.20;;;19.48;66.99;95795.44;4997588;28;20056;-69
2022/06/09 10:43:20;;;;;;;3.33;0.93;;;21.30;59.70;;;19.42;66.59;95801.75;5013261;28;20652;-69
2022/06/09 10:45:57;;;;;;;3.55;1.08;;;21.10;59.60;;;19.26;67.09;95795.50;4992715;28;20544;-69
2022/06/09 10:57:27;;;;;;;4.13;1.48;;;20.80;61.20;;;19.13;68.30;95808.41;5026940;28;20049;-68
2022/06/09 11:00:13;;;;;;;3.45;1.25;;;20.90;61.80;;;19.18;68.49;95805.78;5025345;28;20362;-67
2022/06/09 11:02:45;;;;;;;5.35;1.45;;;21.10;61.00;;;19.26;69.25;95797.34;4977905;28;20577;-69